createdAt,value
2018-08-17T00:01:52.431Z,20.70
2018-08-17T00:04:20.569Z,20.60
2018-08-17T00:06:48.738Z,20.60
2018-08-17T00:09:16.965Z,20.60
2018-08-17T00:11:45.309Z,20.60
2018-08-17T00:14:13.464Z,20.50
2018-08-17T00:16:41.669Z,20.50
2018-08-17T00:19:09.884Z,20.50
2018-08-17T00:21:38.077Z,20.50
2018-08-17T00:24:06.259Z,20.50
2018-08-17T00:26:34.380Z,20.50
2018-08-17T00:29:02.513Z,20.40
2018-08-17T00:31:30.678Z,20.40
2018-08-17T00:33:58.805Z,20.40
2018-08-17T00:36:26.938Z,20.30
2018-08-17T00:38:55.098Z,20.30
2018-08-17T00:41:23.288Z,20.30
2018-08-17T00:43:51.539Z,20.20
2018-08-17T00:46:19.726Z,20.20
2018-08-17T00:48:48.033Z,20.20
2018-08-17T00:51:16.261Z,20.20
2018-08-17T00:53:44.430Z,20.20
2018-08-17T00:56:12.820Z,20.10
2018-08-17T00:58:41.082Z,20.10
2018-08-17T01:01:09.276Z,20.10
2018-08-17T01:03:37.561Z,20.10
2018-08-17T01:06:05.782Z,20.10
2018-08-17T01:08:34.096Z,20.10
2018-08-17T01:11:02.223Z,20.00
2018-08-17T01:13:30.591Z,20.00
2018-08-17T01:15:58.719Z,20.00
2018-08-17T01:18:26.902Z,20.00
2018-08-17T01:20:55.075Z,19.90
2018-08-17T01:23:23.326Z,19.90
2018-08-17T01:25:51.720Z,19.90
2018-08-17T01:28:19.876Z,19.90
2018-08-17T01:30:48.054Z,19.80
2018-08-17T01:33:16.216Z,19.80
2018-08-17T01:35:44.580Z,19.80
2018-08-17T01:38:12.748Z,19.80
2018-08-17T01:40:40.943Z,19.70
2018-08-17T01:43:09.221Z,19.70
2018-08-17T01:45:37.335Z,19.70
2018-08-17T01:48:06.353Z,19.70
2018-08-17T01:50:34.611Z,19.70
2018-08-17T01:53:03.325Z,19.70
2018-08-17T01:55:32.834Z,19.70
2018-08-17T01:58:00.968Z,19.60
2018-08-17T02:00:29.128Z,19.60
2018-08-17T02:02:57.273Z,19.60
2018-08-17T02:05:25.445Z,19.60
2018-08-17T02:07:53.561Z,19.60
2018-08-17T02:10:21.721Z,19.50
2018-08-17T02:12:51.141Z,19.50
2018-08-17T02:15:19.379Z,19.50
2018-08-17T02:17:47.627Z,19.50
2018-08-17T02:20:15.948Z,19.50
2018-08-17T02:22:44.096Z,19.50
2018-08-17T02:25:12.242Z,19.40
2018-08-17T02:27:40.395Z,19.40
2018-08-17T02:30:08.570Z,19.40
2018-08-17T02:32:36.729Z,19.40
2018-08-17T02:35:05.889Z,19.40
2018-08-17T02:37:34.920Z,19.40
2018-08-17T02:40:03.139Z,19.30
2018-08-17T02:42:31.288Z,19.30
2018-08-17T02:44:59.437Z,19.30
2018-08-17T02:47:27.693Z,19.20
2018-08-17T02:49:56.138Z,19.20
2018-08-17T02:52:25.023Z,19.20
2018-08-17T02:54:53.239Z,19.20
2018-08-17T02:57:21.395Z,19.10
2018-08-17T02:59:49.549Z,19.10
2018-08-17T03:02:17.689Z,19.10
2018-08-17T03:04:45.827Z,19.10
2018-08-17T03:07:14.105Z,19.10
2018-08-17T03:09:42.338Z,19.00
2018-08-17T03:12:10.541Z,19.00
2018-08-17T03:14:38.904Z,19.00
2018-08-17T03:17:07.149Z,18.90
2018-08-17T03:19:35.350Z,18.90
2018-08-17T03:22:03.474Z,18.90
2018-08-17T03:24:31.644Z,18.90
2018-08-17T03:26:59.815Z,18.90
2018-08-17T03:29:28.001Z,18.80
2018-08-17T03:31:56.190Z,18.90
2018-08-17T03:34:24.343Z,18.80
2018-08-17T03:36:52.484Z,18.80
2018-08-17T03:39:20.842Z,18.80
2018-08-17T03:41:49.012Z,18.80
2018-08-17T03:44:17.211Z,18.80
2018-08-17T03:46:46.459Z,18.70
2018-08-17T03:49:15.171Z,18.70
2018-08-17T03:51:43.666Z,18.70
2018-08-17T03:54:11.803Z,18.70
2018-08-17T03:56:40.043Z,18.70
2018-08-17T03:59:08.340Z,18.70
2018-08-17T04:01:36.507Z,18.60
2018-08-17T04:04:04.701Z,18.70
2018-08-17T04:06:34.236Z,18.60
2018-08-17T04:09:02.413Z,18.60
2018-08-17T04:11:30.530Z,18.60
2018-08-17T04:13:58.627Z,18.60
2018-08-17T04:16:26.779Z,18.70
2018-08-17T04:18:58.425Z,18.60
2018-08-17T04:21:27.244Z,18.70
2018-08-17T04:23:55.657Z,18.70
2018-08-17T04:26:23.834Z,18.70
2018-08-17T04:28:52.272Z,18.80
2018-08-17T04:31:20.425Z,18.80
2018-08-17T04:33:48.549Z,18.80
2018-08-17T04:36:17.639Z,18.90
2018-08-17T04:38:45.993Z,18.90
2018-08-17T04:41:14.142Z,19.00
2018-08-17T04:43:42.318Z,19.00
2018-08-17T04:46:10.480Z,19.00
2018-08-17T04:48:38.631Z,19.10
2018-08-17T04:51:07.090Z,19.10
2018-08-17T04:53:35.215Z,19.20
2018-08-17T04:56:03.343Z,19.30
2018-08-17T04:58:38.231Z,19.30
2018-08-17T05:01:06.405Z,19.40
2018-08-17T05:03:34.887Z,19.40
2018-08-17T05:06:03.044Z,19.50
2018-08-17T05:08:31.212Z,19.60
2018-08-17T05:10:59.426Z,19.70
2018-08-17T05:13:27.515Z,19.70
2018-08-17T05:15:55.700Z,19.70
2018-08-17T05:18:25.300Z,19.90
2018-08-17T05:20:53.545Z,20.20
2018-08-17T05:23:21.724Z,20.80
2018-08-17T05:25:50.108Z,21.60
2018-08-17T05:28:18.272Z,22.20
2018-08-17T05:30:46.491Z,22.80
2018-08-17T05:33:16.853Z,23.30
2018-08-17T05:35:46.516Z,23.70
2018-08-17T05:40:52.394Z,24.30
2018-08-17T05:43:20.512Z,24.50
2018-08-17T05:45:48.690Z,24.50
2018-08-17T05:48:16.900Z,24.60
2018-08-17T05:50:46.255Z,24.70
2018-08-17T05:53:14.783Z,24.80
2018-08-17T05:55:42.872Z,24.90
2018-08-17T05:58:10.988Z,25.00
2018-08-17T06:00:39.184Z,25.10
2018-08-17T06:03:07.479Z,25.20
2018-08-17T06:05:35.758Z,25.30
2018-08-17T06:08:04.104Z,25.30
2018-08-17T06:10:32.312Z,25.40
2018-08-17T06:13:00.922Z,25.50
2018-08-17T06:15:29.066Z,25.60
2018-08-17T06:17:57.212Z,25.70
2018-08-17T06:20:25.334Z,25.80
2018-08-17T06:22:53.452Z,25.80
2018-08-17T06:25:21.638Z,25.80
2018-08-17T06:27:51.867Z,25.60
2018-08-17T06:30:20.019Z,25.60
2018-08-17T06:32:48.223Z,25.60
2018-08-17T06:35:16.401Z,25.70
2018-08-17T06:37:44.825Z,25.80
2018-08-17T06:40:12.988Z,25.90
2018-08-17T06:42:41.198Z,25.90
2018-08-17T06:45:11.071Z,26.00
2018-08-17T06:47:39.289Z,26.10
2018-08-17T06:50:09.293Z,26.10
2018-08-17T06:52:37.878Z,26.20
2018-08-17T06:55:07.729Z,26.40
2018-08-17T06:57:36.021Z,26.50
2018-08-17T07:00:06.127Z,26.50
2018-08-17T07:02:34.286Z,26.60
2018-08-17T07:05:02.433Z,26.70
2018-08-17T07:07:30.583Z,26.80
2018-08-17T07:09:58.769Z,26.80
2018-08-17T07:12:26.939Z,26.70
2018-08-17T07:14:55.126Z,26.70
2018-08-17T07:17:23.506Z,26.70
2018-08-17T07:19:51.919Z,26.90
2018-08-17T07:22:20.091Z,26.80
2018-08-17T07:24:48.302Z,26.90
2018-08-17T07:27:16.507Z,27.00
2018-08-17T07:29:44.707Z,27.00
2018-08-17T07:32:12.884Z,26.90
2018-08-17T07:34:41.273Z,27.00
2018-08-17T07:37:09.960Z,27.00
2018-08-17T07:39:38.354Z,27.00
2018-08-17T07:42:06.517Z,27.00
2018-08-17T07:44:35.104Z,27.00
2018-08-17T07:47:03.405Z,27.10
2018-08-17T07:49:31.907Z,27.20
2018-08-17T07:52:00.059Z,27.30
2018-08-17T07:54:28.259Z,27.30
2018-08-17T07:56:56.546Z,27.30
2018-08-17T07:59:24.776Z,27.30
2018-08-17T08:01:52.958Z,27.30
2018-08-17T08:04:21.114Z,27.30
2018-08-17T08:06:49.282Z,27.30
2018-08-17T08:09:17.482Z,27.30
2018-08-17T08:11:46.693Z,27.00
2018-08-17T08:14:14.852Z,26.90
2018-08-17T08:16:43.012Z,26.70
2018-08-17T08:19:15.825Z,26.70
2018-08-17T08:21:46.004Z,26.60
2018-08-17T08:24:14.168Z,26.60
2018-08-17T08:26:42.333Z,26.60
2018-08-17T08:29:11.148Z,26.60
2018-08-17T08:31:39.359Z,26.60
2018-08-17T08:34:07.508Z,26.60
2018-08-17T08:36:35.667Z,26.60
2018-08-17T08:39:06.158Z,26.50
2018-08-17T08:41:34.290Z,26.60
2018-08-17T08:44:02.506Z,26.60
2018-08-17T08:46:30.810Z,26.70
2018-08-17T08:48:58.957Z,26.80
2018-08-17T08:51:27.119Z,26.80
2018-08-17T08:53:55.366Z,26.80
2018-08-17T08:56:23.574Z,26.90
2018-08-17T08:58:53.417Z,27.00
2018-08-17T09:01:21.533Z,27.00
2018-08-17T09:03:49.709Z,27.00
2018-08-17T09:06:17.925Z,27.10
2018-08-17T09:08:46.020Z,27.10
2018-08-17T09:11:14.167Z,27.20
2018-08-17T09:13:42.468Z,27.30
2018-08-17T09:16:10.661Z,27.30
2018-08-17T09:18:38.766Z,27.40
2018-08-17T09:21:07.295Z,27.40
2018-08-17T09:23:35.427Z,27.50
2018-08-17T09:26:03.581Z,27.50
2018-08-17T09:28:31.825Z,27.60
2018-08-17T09:30:59.982Z,27.60
2018-08-17T09:33:28.289Z,27.60
2018-08-17T09:35:56.585Z,27.60
2018-08-17T09:38:25.642Z,27.70
2018-08-17T09:40:53.795Z,27.70
2018-08-17T09:43:21.918Z,27.80
2018-08-17T09:45:50.139Z,27.90
2018-08-17T09:48:18.296Z,27.90
2018-08-17T09:50:46.531Z,28.00
2018-08-17T09:53:14.780Z,28.10
2018-08-17T09:55:43.207Z,28.20
2018-08-17T09:58:11.313Z,28.20
2018-08-17T10:00:44.731Z,28.20
2018-08-17T10:03:18.581Z,28.30
2018-08-17T10:05:46.848Z,28.40
2018-08-17T10:08:21.769Z,28.50
2018-08-17T10:10:49.948Z,28.60
2018-08-17T10:13:18.231Z,28.60
2018-08-17T10:15:46.479Z,28.70
2018-08-17T10:18:14.584Z,28.80
2018-08-17T10:20:42.849Z,28.80
2018-08-17T10:23:16.206Z,28.90
2018-08-17T10:25:44.465Z,29.00
2018-08-17T10:28:12.658Z,29.10
2018-08-17T10:30:41.051Z,29.20
2018-08-17T10:33:09.709Z,29.40
2018-08-17T10:35:37.841Z,29.50
2018-08-17T10:38:07.024Z,29.80
2018-08-17T10:40:35.324Z,30.10
2018-08-17T10:43:04.797Z,30.40
2018-08-17T10:45:33.396Z,30.40
2018-08-17T10:48:01.595Z,30.60
2018-08-17T10:50:32.325Z,30.70
2018-08-17T10:53:02.638Z,30.90
2018-08-17T10:55:38.295Z,31.10
2018-08-17T10:58:07.081Z,31.00
2018-08-17T11:00:35.459Z,30.90
2018-08-17T11:03:03.675Z,30.70
2018-08-17T11:05:31.843Z,30.70
2018-08-17T11:08:00.027Z,30.70
2018-08-17T11:10:28.223Z,30.90
2018-08-17T11:12:56.449Z,30.90
2018-08-17T11:15:24.620Z,30.90
2018-08-17T11:17:52.784Z,31.00
2018-08-17T11:20:21.674Z,31.00
2018-08-17T11:22:49.867Z,31.00
2018-08-17T11:25:18.025Z,31.10
2018-08-17T11:27:46.713Z,31.10
2018-08-17T11:30:15.339Z,31.10
2018-08-17T11:32:44.072Z,31.10
2018-08-17T11:35:12.226Z,31.20
2018-08-17T11:37:40.359Z,31.30
2018-08-17T11:40:09.676Z,31.30
2018-08-17T11:42:42.026Z,31.30
2018-08-17T11:45:14.395Z,31.40
2018-08-17T11:47:44.133Z,31.40
2018-08-17T11:50:16.833Z,31.40
2018-08-17T11:52:50.527Z,31.40
2018-08-17T11:55:19.756Z,31.60
2018-08-17T11:57:48.754Z,31.60
2018-08-17T12:00:17.971Z,31.70
2018-08-17T12:02:46.267Z,31.60
2018-08-17T12:05:14.439Z,31.50
2018-08-17T12:07:43.498Z,31.50
2018-08-17T12:10:11.681Z,31.50
2018-08-17T12:12:40.996Z,31.50
2018-08-17T12:15:10.270Z,31.60
2018-08-17T12:17:38.762Z,31.70
2018-08-17T12:20:07.054Z,31.70
2018-08-17T12:22:35.274Z,31.90
2018-08-17T12:25:03.463Z,32.00
2018-08-17T12:27:31.931Z,32.10
2018-08-17T12:30:00.177Z,32.20
2018-08-17T12:32:28.439Z,32.10
2018-08-17T12:34:56.607Z,32.20
2018-08-17T12:37:24.855Z,32.30
2018-08-17T12:39:53.057Z,32.40
2018-08-17T12:42:21.454Z,32.40
2018-08-17T12:44:49.563Z,32.40
2018-08-17T12:47:17.721Z,32.40
2018-08-17T12:49:45.857Z,32.40
2018-08-17T12:52:14.065Z,32.60
2018-08-17T12:54:42.288Z,32.60
2018-08-17T12:57:10.421Z,32.40
2018-08-17T12:59:38.596Z,32.40
2018-08-17T13:02:06.835Z,32.40
2018-08-17T13:04:34.983Z,32.40
2018-08-17T13:07:04.230Z,32.30
2018-08-17T13:09:32.387Z,32.30
2018-08-17T13:12:01.684Z,32.10
2018-08-17T13:14:30.299Z,32.00
2018-08-17T13:16:59.777Z,31.80
2018-08-17T13:19:28.055Z,31.60
2018-08-17T13:21:56.308Z,31.50
2018-08-17T13:24:24.429Z,31.40
2018-08-17T13:26:52.533Z,31.30
2018-08-17T13:29:20.703Z,31.30
2018-08-17T13:31:48.828Z,31.40
2018-08-17T13:34:17.152Z,31.60
2018-08-17T13:36:45.415Z,31.70
2018-08-17T13:39:13.640Z,31.90
2018-08-17T13:41:41.824Z,32.00
2018-08-17T13:44:11.615Z,32.00
2018-08-17T13:46:39.962Z,32.00
2018-08-17T13:49:08.441Z,32.00
2018-08-17T13:51:36.574Z,31.90
2018-08-17T13:54:05.107Z,32.00
2018-08-17T13:56:33.370Z,32.00
2018-08-17T13:59:01.672Z,31.90
2018-08-17T14:01:30.062Z,31.90
2018-08-17T14:03:58.276Z,31.90
2018-08-17T14:06:26.482Z,31.80
2018-08-17T14:08:54.616Z,31.80
2018-08-17T14:11:22.799Z,31.70
2018-08-17T14:13:51.045Z,31.60
2018-08-17T14:16:19.204Z,31.50
2018-08-17T14:18:47.355Z,31.50
2018-08-17T14:21:15.793Z,31.50
2018-08-17T14:23:43.965Z,31.50
2018-08-17T14:26:12.125Z,31.60
2018-08-17T14:28:40.463Z,31.60
2018-08-17T14:31:10.108Z,31.50
2018-08-17T14:33:38.278Z,31.50
2018-08-17T14:36:06.716Z,31.50
2018-08-17T14:38:36.634Z,31.40
2018-08-17T14:41:05.625Z,31.40
2018-08-17T14:43:34.206Z,31.40
2018-08-17T14:46:02.381Z,31.40
2018-08-17T14:48:30.629Z,31.30
2018-08-17T14:50:58.766Z,31.20
2018-08-17T14:53:27.389Z,31.30
2018-08-17T14:55:55.511Z,31.20
2018-08-17T14:58:23.791Z,31.20
2018-08-17T15:00:52.043Z,31.20
2018-08-17T15:03:20.215Z,31.20
2018-08-17T15:05:48.457Z,31.20
2018-08-17T15:08:16.577Z,31.10
2018-08-17T15:10:44.777Z,31.20
2018-08-17T15:13:14.131Z,31.30
2018-08-17T15:15:42.268Z,31.30
2018-08-17T15:18:10.680Z,31.30
2018-08-17T15:20:38.933Z,31.30
2018-08-17T15:23:07.975Z,31.20
2018-08-17T15:25:36.532Z,31.20
2018-08-17T15:28:04.678Z,31.10
2018-08-17T15:30:32.852Z,31.10
2018-08-17T15:33:01.097Z,31.10
2018-08-17T15:35:29.363Z,31.00
2018-08-17T15:37:57.549Z,31.00
2018-08-17T15:40:25.723Z,30.90
2018-08-17T15:42:58.139Z,30.80
2018-08-17T15:45:26.345Z,30.70
2018-08-17T15:47:54.501Z,30.70
2018-08-17T15:50:22.718Z,30.60
2018-08-17T15:52:50.912Z,30.50
2018-08-17T15:55:19.195Z,30.50
2018-08-17T15:57:47.543Z,30.40
2018-08-17T16:00:18.241Z,30.30
2018-08-17T16:02:46.429Z,30.30
2018-08-17T16:05:14.627Z,30.30
2018-08-17T16:07:42.916Z,30.20
2018-08-17T16:10:13.384Z,30.20
2018-08-17T16:12:41.549Z,30.40
2018-08-17T16:15:10.252Z,31.00
2018-08-17T16:17:38.911Z,31.20
2018-08-17T16:20:08.528Z,31.10
2018-08-17T16:22:37.408Z,30.70
2018-08-17T16:25:06.369Z,30.40
2018-08-17T16:27:34.620Z,30.20
2018-08-17T16:30:02.944Z,30.00
2018-08-17T16:32:31.092Z,29.90
2018-08-17T16:35:00.466Z,29.80
2018-08-17T16:37:28.764Z,29.70
2018-08-17T16:39:56.867Z,29.70
2018-08-17T16:42:31.220Z,29.60
2018-08-17T16:44:59.705Z,29.60
2018-08-17T16:47:27.880Z,29.50
2018-08-17T16:49:56.487Z,29.50
2018-08-17T16:52:24.975Z,29.40
2018-08-17T16:54:53.355Z,29.30
2018-08-17T16:57:21.529Z,29.20
2018-08-17T16:59:49.776Z,29.20
2018-08-17T17:02:18.095Z,29.10
2018-08-17T17:04:46.255Z,29.00
2018-08-17T17:07:14.474Z,29.00
2018-08-17T17:09:42.750Z,28.90
2018-08-17T17:12:15.451Z,28.80
2018-08-17T17:14:44.290Z,28.80
2018-08-17T17:17:12.491Z,28.70
2018-08-17T17:19:40.669Z,28.70
2018-08-17T17:22:09.411Z,28.70
2018-08-17T17:24:37.518Z,28.60
2018-08-17T17:27:06.494Z,28.50
2018-08-17T17:29:35.842Z,28.40
2018-08-17T17:32:05.181Z,28.30
2018-08-17T17:34:33.442Z,28.10
2018-08-17T17:37:01.672Z,27.90
2018-08-17T17:39:29.844Z,27.80
2018-08-17T17:41:58.053Z,27.70
2018-08-17T17:44:26.299Z,27.60
2018-08-17T17:46:54.493Z,27.50
2018-08-17T17:49:22.703Z,27.30
2018-08-17T17:51:51.803Z,27.20
2018-08-17T17:54:23.554Z,27.10
2018-08-17T17:57:01.822Z,27.00
2018-08-17T17:59:30.254Z,27.00
2018-08-17T18:01:58.473Z,26.90
2018-08-17T18:04:30.593Z,26.90
2018-08-17T18:06:59.342Z,26.80
2018-08-17T18:09:28.713Z,26.70
2018-08-17T18:11:56.877Z,26.60
2018-08-17T18:14:25.048Z,26.60
2018-08-17T18:16:53.190Z,26.50
2018-08-17T18:19:21.324Z,26.40
2018-08-17T18:21:49.546Z,26.30
2018-08-17T18:24:17.716Z,26.20
2018-08-17T18:26:46.806Z,26.10
2018-08-17T18:29:16.784Z,26.10
2018-08-17T18:31:45.934Z,25.90
2018-08-17T18:34:14.476Z,25.90
2018-08-17T18:36:42.723Z,25.80
2018-08-17T18:39:12.720Z,25.80
2018-08-17T18:41:41.184Z,25.80
2018-08-17T18:44:09.451Z,25.70
2018-08-17T18:46:37.873Z,25.60
2018-08-17T18:49:06.212Z,25.60
2018-08-17T18:51:35.506Z,25.40
2018-08-17T18:54:04.095Z,25.40
2018-08-17T18:56:32.265Z,25.30
2018-08-17T18:59:00.482Z,25.20
2018-08-17T19:01:30.585Z,25.10
2018-08-17T19:03:58.730Z,25.00
2018-08-17T19:06:26.841Z,24.90
2018-08-17T19:08:55.464Z,24.90
2018-08-17T19:11:23.589Z,24.80
2018-08-17T19:13:51.732Z,24.70
2018-08-17T19:16:19.907Z,24.70
2018-08-17T19:18:48.083Z,24.60
2018-08-17T19:21:16.271Z,24.50
2018-08-17T19:23:44.698Z,24.40
2018-08-17T19:26:12.847Z,24.40
2018-08-17T19:28:41.056Z,24.30
2018-08-17T19:31:09.357Z,24.30
2018-08-17T19:33:39.104Z,24.10
2018-08-17T19:36:07.321Z,24.10
2018-08-17T19:38:37.816Z,24.00
2018-08-17T19:41:06.011Z,24.00
2018-08-17T19:43:34.156Z,23.90
2018-08-17T19:46:02.410Z,23.90
2018-08-17T19:48:30.506Z,23.90
2018-08-17T19:50:59.642Z,23.90
2018-08-17T19:53:28.112Z,23.90
2018-08-17T19:55:56.309Z,23.80
2018-08-17T19:58:24.594Z,23.70
2018-08-17T20:00:52.695Z,23.70
2018-08-17T20:03:22.173Z,23.70
2018-08-17T20:05:50.375Z,23.70
2018-08-17T20:08:18.535Z,23.70
2018-08-17T20:10:46.732Z,23.60
2018-08-17T20:13:15.940Z,23.60
2018-08-17T20:15:44.106Z,23.50
2018-08-17T20:18:12.297Z,23.40
2018-08-17T20:20:40.545Z,23.30
2018-08-17T20:23:08.792Z,23.30
2018-08-17T20:25:37.128Z,23.20
2018-08-17T20:28:05.277Z,23.20
2018-08-17T20:30:33.557Z,23.20
2018-08-17T20:33:01.719Z,23.20
2018-08-17T20:35:29.884Z,23.10
2018-08-17T20:37:58.149Z,23.10
2018-08-17T20:40:26.362Z,23.00
2018-08-17T20:42:54.567Z,23.00
2018-08-17T20:45:25.833Z,22.90
2018-08-17T20:47:54.178Z,22.90
2018-08-17T20:50:22.318Z,22.90
2018-08-17T20:52:57.959Z,22.90
2018-08-17T20:55:26.153Z,22.90
2018-08-17T20:57:55.468Z,22.80
2018-08-17T21:00:25.448Z,22.80
2018-08-17T21:02:53.707Z,22.80
2018-08-17T21:05:22.168Z,22.70
2018-08-17T21:07:50.594Z,22.70
2018-08-17T21:10:19.106Z,22.70
2018-08-17T21:12:47.876Z,22.70
2018-08-17T21:15:16.604Z,22.60
2018-08-17T21:17:45.138Z,22.60
2018-08-17T21:20:14.361Z,22.50
2018-08-17T21:22:42.575Z,22.50
2018-08-17T21:25:10.885Z,22.40
2018-08-17T21:27:39.130Z,22.40
2018-08-17T21:30:08.189Z,22.40
2018-08-17T21:32:36.824Z,22.40
2018-08-17T21:35:05.602Z,22.30
2018-08-17T21:37:33.727Z,22.30
2018-08-17T21:40:01.906Z,22.20
2018-08-17T21:42:30.126Z,22.20
2018-08-17T21:45:01.428Z,22.10
2018-08-17T21:47:31.476Z,22.10
2018-08-17T21:50:05.166Z,22.10
2018-08-17T21:52:33.280Z,22.10
2018-08-17T21:55:01.533Z,22.00
2018-08-17T21:57:29.661Z,22.00
2018-08-17T21:59:57.810Z,22.00
2018-08-17T22:02:26.146Z,21.90
2018-08-17T22:04:54.320Z,21.90
2018-08-17T22:07:23.553Z,21.90
2018-08-17T22:09:52.762Z,21.80
2018-08-17T22:12:21.396Z,21.80
2018-08-17T22:14:49.930Z,21.70
2018-08-17T22:17:30.612Z,21.70
2018-08-17T22:19:58.793Z,21.60
2018-08-17T22:22:26.931Z,21.60
2018-08-17T22:24:56.895Z,21.50
2018-08-17T22:27:25.887Z,21.50
2018-08-17T22:29:55.349Z,21.50
2018-08-17T22:32:23.986Z,21.40
2018-08-17T22:34:52.358Z,21.40
2018-08-17T22:37:20.466Z,21.40
2018-08-17T22:39:48.760Z,21.30
2018-08-17T22:42:17.813Z,21.30
2018-08-17T22:44:47.391Z,21.30
2018-08-17T22:47:21.551Z,21.30
2018-08-17T22:49:50.664Z,21.20
2018-08-17T22:52:18.917Z,21.10
2018-08-17T22:54:52.930Z,21.10
2018-08-17T22:57:21.341Z,21.10
2018-08-17T23:00:16.961Z,21.10
2018-08-17T23:02:45.998Z,21.10
2018-08-17T23:05:16.076Z,21.00
2018-08-17T23:07:44.244Z,21.00
2018-08-17T23:10:16.388Z,21.00
2018-08-17T23:12:45.596Z,20.90
2018-08-17T23:15:14.062Z,21.00
2018-08-17T23:17:45.712Z,20.80
2018-08-17T23:20:14.072Z,20.80
2018-08-17T23:22:45.809Z,20.80
2018-08-17T23:25:14.230Z,20.80
2018-08-17T23:27:42.522Z,20.80
2018-08-17T23:30:11.592Z,20.80
2018-08-17T23:32:39.759Z,20.70
2018-08-17T23:35:09.512Z,20.70
2018-08-17T23:37:38.198Z,20.60
2018-08-17T23:40:07.932Z,20.60
2018-08-17T23:42:37.688Z,20.60
2018-08-17T23:45:07.400Z,20.60
2018-08-17T23:47:35.740Z,20.60
2018-08-17T23:50:04.540Z,20.60
2018-08-17T23:52:32.842Z,20.50
2018-08-17T23:55:01.005Z,20.50
2018-08-17T23:57:29.178Z,20.50
